createdAt,value
2023-04-11T00:02:39.043Z,42.80
2023-04-11T00:05:31.384Z,43.10
2023-04-11T00:08:20.785Z,43.20
2023-04-11T00:11:10.234Z,43.20
2023-04-11T00:13:59.615Z,42.90
2023-04-11T00:16:49.832Z,43.40
2023-04-11T00:19:40.625Z,43.10
2023-04-11T00:22:33.569Z,43.10
2023-04-11T00:25:22.990Z,43.10
2023-04-11T00:28:12.437Z,43.40
2023-04-11T00:31:03.160Z,43.30
2023-04-11T00:33:52.576Z,43.50
2023-04-11T00:36:42.678Z,43.40
2023-04-11T00:39:35.103Z,43.30
2023-04-11T00:42:24.584Z,43.30
2023-04-11T00:45:14.467Z,43.20
2023-04-11T00:48:05.435Z,43.50
2023-04-11T00:50:55.577Z,43.50
2023-04-11T00:53:45.846Z,43.70
2023-04-11T00:56:36.697Z,43.70
2023-04-11T00:59:27.443Z,43.70
2023-04-11T01:02:18.265Z,43.70
2023-04-11T01:05:09.161Z,43.70
2023-04-11T01:07:59.299Z,43.70
2023-04-11T01:10:50.261Z,43.70
2023-04-11T01:13:44.942Z,43.70
2023-04-11T01:16:34.403Z,43.70
2023-04-11T01:19:26.969Z,43.50
2023-04-11T01:22:18.711Z,43.60
2023-04-11T01:25:11.232Z,43.70
2023-04-11T01:28:01.008Z,43.80
2023-04-11T01:30:50.978Z,43.60
2023-04-11T01:33:40.858Z,43.50
2023-04-11T01:36:31.133Z,43.40
2023-04-11T01:39:20.533Z,43.20
2023-04-11T01:42:11.530Z,43.30
2023-04-11T01:45:01.593Z,43.00
2023-04-11T01:47:54.481Z,43.10
2023-04-11T01:50:44.072Z,43.10
2023-04-11T01:53:33.895Z,42.80
2023-04-11T01:56:23.323Z,42.90
2023-04-11T01:59:14.157Z,42.90
2023-04-11T02:02:03.801Z,43.20
2023-04-11T02:04:54.631Z,43.30
2023-04-11T02:07:45.149Z,42.90
2023-04-11T02:10:40.012Z,43.10
2023-04-11T02:13:29.415Z,43.00
2023-04-11T02:16:20.818Z,43.00
2023-04-11T02:19:10.278Z,43.40
2023-04-11T02:21:59.652Z,43.50
2023-04-11T02:24:51.259Z,43.30
2023-04-11T02:27:40.615Z,43.20
2023-04-11T02:30:30.443Z,43.10
2023-04-11T02:33:21.320Z,43.20
2023-04-11T02:36:12.438Z,43.30
2023-04-11T02:39:01.954Z,43.20
2023-04-11T02:41:51.771Z,43.30
2023-04-11T02:44:41.384Z,43.10
2023-04-11T02:47:31.200Z,43.10
2023-04-11T02:50:27.244Z,43.70
2023-04-11T02:53:17.864Z,43.10
2023-04-11T02:56:12.010Z,43.10
2023-04-11T02:59:01.499Z,43.20
2023-04-11T03:02:09.062Z,43.40
2023-04-11T03:05:07.077Z,43.30
2023-04-11T03:08:01.771Z,43.20
2023-04-11T03:10:56.977Z,43.20
2023-04-11T03:13:48.056Z,43.20
2023-04-11T03:16:37.496Z,43.30
2023-04-11T03:19:27.068Z,43.30
2023-04-11T03:22:17.377Z,43.10
2023-04-11T03:25:09.653Z,43.10
2023-04-11T03:27:59.307Z,43.10
2023-04-11T03:30:50.612Z,43.10
2023-04-11T03:33:46.120Z,43.20
2023-04-11T03:36:35.513Z,43.30
2023-04-11T03:39:27.700Z,43.20
2023-04-11T03:42:22.383Z,43.20
2023-04-11T03:45:17.350Z,43.40
2023-04-11T03:48:08.995Z,43.40
2023-04-11T03:51:09.752Z,43.50
2023-04-11T03:54:08.709Z,43.40
2023-04-11T03:57:01.856Z,43.50
2023-04-11T03:59:54.221Z,43.80
2023-04-11T04:02:44.293Z,43.80
2023-04-11T04:05:36.693Z,43.90
2023-04-11T04:08:26.250Z,44.30
2023-04-11T04:11:15.660Z,44.30
2023-04-11T04:14:05.857Z,44.60
2023-04-11T04:16:56.639Z,45.00
2023-04-11T04:19:46.341Z,45.10
2023-04-11T04:22:37.136Z,45.10
2023-04-11T04:25:26.786Z,45.50
2023-04-11T04:28:20.313Z,45.40
2023-04-11T04:31:10.248Z,46.50
2023-04-11T04:34:09.623Z,46.40
2023-04-11T04:37:02.494Z,46.70
2023-04-11T04:40:07.799Z,46.40
2023-04-11T04:43:03.970Z,46.70
2023-04-11T04:46:02.920Z,47.00
2023-04-11T04:49:02.208Z,47.20
2023-04-11T04:51:53.230Z,46.90
2023-04-11T04:54:43.063Z,47.00
2023-04-11T04:57:33.001Z,47.20
2023-04-11T05:00:23.946Z,47.30
2023-04-11T05:03:20.864Z,47.20
2023-04-11T05:06:12.378Z,47.50
2023-04-11T05:09:06.649Z,47.90
2023-04-11T05:11:57.890Z,48.10
2023-04-11T05:14:48.129Z,48.00
2023-04-11T05:17:37.668Z,48.10
2023-04-11T05:20:29.651Z,48.30
2023-04-11T05:23:20.301Z,48.30
2023-04-11T05:26:13.035Z,48.30
2023-04-11T05:29:03.927Z,48.80
2023-04-11T05:31:53.437Z,48.90
2023-04-11T05:34:55.173Z,48.80
2023-04-11T05:37:53.745Z,49.40
2023-04-11T05:40:43.148Z,48.90
2023-04-11T05:43:33.845Z,48.90
2023-04-11T05:46:24.130Z,49.10
2023-04-11T05:49:13.504Z,48.90
2023-04-11T05:52:02.825Z,48.90
2023-04-11T05:54:52.199Z,48.90
2023-04-11T05:57:41.619Z,49.00
2023-04-11T06:00:32.552Z,49.20
2023-04-11T06:03:22.270Z,49.30
2023-04-11T06:06:11.934Z,49.60
2023-04-11T06:09:01.684Z,49.60
2023-04-11T06:11:51.198Z,49.90
2023-04-11T06:14:40.902Z,49.80
2023-04-11T06:17:31.825Z,49.80
2023-04-11T06:20:22.522Z,49.80
2023-04-11T06:23:11.923Z,49.80
2023-04-11T06:26:01.452Z,49.90
2023-04-11T06:28:51.279Z,50.10
2023-04-11T06:31:41.680Z,50.60
2023-04-11T06:34:32.590Z,50.60
2023-04-11T06:37:23.021Z,50.80
2023-04-11T06:40:13.801Z,50.60
2023-04-11T06:43:03.162Z,50.50
2023-04-11T06:45:53.415Z,50.80
2023-04-11T06:48:42.724Z,50.70
2023-04-11T06:51:33.489Z,51.00
2023-04-11T06:54:23.044Z,51.20
2023-04-11T06:57:13.489Z,51.40
2023-04-11T07:00:06.777Z,51.40
2023-04-11T07:02:56.338Z,51.70
2023-04-11T07:05:45.840Z,51.40
2023-04-11T07:08:36.876Z,51.60
2023-04-11T07:11:26.287Z,51.80
2023-04-11T07:14:15.952Z,52.60
2023-04-11T07:17:05.350Z,51.80
2023-04-11T07:19:54.795Z,52.00
2023-04-11T07:22:44.312Z,52.10
2023-04-11T07:25:35.312Z,52.20
2023-04-11T07:28:25.110Z,52.30
2023-04-11T07:31:15.193Z,52.40
2023-04-11T07:34:04.573Z,52.50
2023-04-11T07:36:57.896Z,52.50
2023-04-11T07:39:47.238Z,52.30
2023-04-11T07:42:38.079Z,52.50
2023-04-11T07:45:27.532Z,52.40
2023-04-11T07:48:16.933Z,52.50
2023-04-11T07:51:06.539Z,52.60
2023-04-11T07:53:56.191Z,52.70
2023-04-11T07:56:45.829Z,52.70
2023-04-11T07:59:36.680Z,52.80
2023-04-11T08:02:26.218Z,52.80
2023-04-11T08:05:15.677Z,53.40
2023-04-11T08:08:06.126Z,52.70
2023-04-11T08:10:55.421Z,52.50
2023-04-11T08:13:45.158Z,52.30
2023-04-11T08:16:37.089Z,52.40
2023-04-11T08:19:26.728Z,52.40
2023-04-11T08:22:16.586Z,52.30
2023-04-11T08:25:07.734Z,52.20
2023-04-11T08:27:57.076Z,52.20
2023-04-11T08:30:46.489Z,52.30
2023-04-11T08:33:37.544Z,52.30
2023-04-11T08:36:27.344Z,52.50
2023-04-11T08:39:16.704Z,52.50
2023-04-11T08:42:06.783Z,52.50
2023-04-11T08:44:57.554Z,52.30
2023-04-11T08:47:47.053Z,52.00
2023-04-11T08:50:37.786Z,52.00
2023-04-11T08:53:28.418Z,52.00
2023-04-11T08:56:18.035Z,51.90
2023-04-11T08:59:07.408Z,51.70
2023-04-11T09:02:09.366Z,51.60
2023-04-11T09:04:59.049Z,52.20
2023-04-11T09:07:51.259Z,52.10
2023-04-11T09:10:42.926Z,52.40
2023-04-11T09:13:32.271Z,52.80
2023-04-11T09:16:21.729Z,53.10
2023-04-11T09:19:26.025Z,53.50
2023-04-11T09:22:15.714Z,53.70
2023-04-11T09:25:07.366Z,53.60
2023-04-11T09:28:09.762Z,53.70
2023-04-11T09:30:59.903Z,53.70
2023-04-11T09:33:55.839Z,53.70
2023-04-11T09:36:56.353Z,54.30
2023-04-11T09:39:45.864Z,54.80
2023-04-11T09:42:36.832Z,55.90
2023-04-11T09:45:28.068Z,56.20
2023-04-11T09:48:18.135Z,55.70
2023-04-11T09:51:08.775Z,55.10
2023-04-11T09:53:59.289Z,54.50
2023-04-11T09:56:49.664Z,54.00
2023-04-11T09:59:42.349Z,53.60
2023-04-11T10:02:31.806Z,52.60
2023-04-11T10:05:26.043Z,51.80
2023-04-11T10:08:25.228Z,51.60
2023-04-11T10:11:18.586Z,52.80
2023-04-11T10:14:07.923Z,54.40
2023-04-11T10:17:20.700Z,55.80
2023-04-11T10:20:47.272Z,55.50
2023-04-11T10:24:17.446Z,55.50
2023-04-11T10:27:07.713Z,54.30
2023-04-11T10:29:57.166Z,53.40
2023-04-11T10:33:12.212Z,51.70
2023-04-11T10:36:05.212Z,49.60
2023-04-11T10:38:54.641Z,48.70
2023-04-11T10:41:44.022Z,47.50
2023-04-11T10:44:33.330Z,46.40
2023-04-11T10:47:26.158Z,46.00
2023-04-11T10:50:38.063Z,46.10
2023-04-11T10:53:38.539Z,47.60
2023-04-11T10:56:55.556Z,48.00
2023-04-11T11:00:01.156Z,48.70
2023-04-11T11:02:51.486Z,50.00
2023-04-11T11:05:42.383Z,50.40
2023-04-11T11:08:35.505Z,51.50
2023-04-11T11:11:24.797Z,52.50
2023-04-11T11:14:30.730Z,53.40
2023-04-11T11:17:20.272Z,53.50
2023-04-11T11:20:19.903Z,54.20
2023-04-11T11:23:11.681Z,54.30
2023-04-11T11:26:01.198Z,53.70
2023-04-11T11:28:50.665Z,53.10
2023-04-11T11:31:41.702Z,52.60
2023-04-11T11:34:32.798Z,51.80
2023-04-11T11:37:23.298Z,50.70
2023-04-11T11:40:14.456Z,50.00
2023-04-11T11:43:03.884Z,49.70
2023-04-11T11:46:14.331Z,49.90
2023-04-11T11:49:06.428Z,50.20
2023-04-11T11:51:55.852Z,50.30
2023-04-11T11:54:46.683Z,50.00
2023-04-11T11:57:38.037Z,49.70
2023-04-11T12:00:28.978Z,49.50
2023-04-11T12:03:22.770Z,50.00
2023-04-11T12:06:13.401Z,49.30
2023-04-11T12:09:04.563Z,49.10
2023-04-11T12:11:56.546Z,49.00
2023-04-11T12:14:55.118Z,48.50
2023-04-11T12:17:44.975Z,48.10
2023-04-11T12:20:34.412Z,47.80
2023-04-11T12:23:24.136Z,47.60
2023-04-11T12:26:13.654Z,47.60
2023-04-11T12:29:03.468Z,47.80
2023-04-11T12:31:54.301Z,48.10
2023-04-11T12:34:43.689Z,48.40
2023-04-11T12:37:33.465Z,48.50
2023-04-11T12:40:23.002Z,48.50
2023-04-11T12:43:12.315Z,48.30
2023-04-11T12:46:01.681Z,48.10
2023-04-11T12:48:52.382Z,48.00
2023-04-11T12:51:41.675Z,47.80
2023-04-11T12:54:31.079Z,47.60
2023-04-11T12:57:20.591Z,47.50
2023-04-11T13:00:12.895Z,47.50
2023-04-11T13:03:04.645Z,47.60
2023-04-11T13:05:55.894Z,47.50
2023-04-11T13:08:45.368Z,47.50
2023-04-11T13:11:34.631Z,47.70
2023-04-11T13:14:24.060Z,47.90
2023-04-11T13:17:13.392Z,48.10
2023-04-11T13:20:07.283Z,48.10
2023-04-11T13:22:57.986Z,48.00
2023-04-11T13:25:47.347Z,48.00
2023-04-11T13:28:36.810Z,47.70
2023-04-11T13:31:27.098Z,47.60
2023-04-11T13:34:16.903Z,47.60
2023-04-11T13:37:06.408Z,47.50
2023-04-11T13:39:57.173Z,47.50
2023-04-11T13:42:46.505Z,47.30
2023-04-11T13:45:35.865Z,47.40
2023-04-11T13:48:25.260Z,47.90
2023-04-11T13:51:15.199Z,46.60
2023-04-11T13:54:05.841Z,46.30
2023-04-11T13:56:56.712Z,46.00
2023-04-11T13:59:46.094Z,45.30
2023-04-11T14:02:35.570Z,45.10
2023-04-11T14:05:27.050Z,44.70
2023-04-11T14:08:16.460Z,44.80
2023-04-11T14:11:06.616Z,44.90
2023-04-11T14:13:57.657Z,45.00
2023-04-11T14:16:47.303Z,45.20
2023-04-11T14:19:36.670Z,45.20
2023-04-11T14:22:27.445Z,45.40
2023-04-11T14:25:16.813Z,45.50
2023-04-11T14:28:06.464Z,45.60
2023-04-11T14:30:57.690Z,45.70
2023-04-11T14:33:47.115Z,45.80
2023-04-11T14:36:36.497Z,45.90
2023-04-11T14:39:25.861Z,45.70
2023-04-11T14:42:15.302Z,45.90
2023-04-11T14:45:06.906Z,46.00
2023-04-11T14:47:57.633Z,45.90
2023-04-11T14:50:47.048Z,45.70
2023-04-11T14:53:36.880Z,45.60
2023-04-11T14:56:27.080Z,45.60
2023-04-11T14:59:16.760Z,45.40
2023-04-11T15:02:06.239Z,45.40
2023-04-11T15:04:57.130Z,45.60
2023-04-11T15:07:48.812Z,45.90
2023-04-11T15:10:38.295Z,46.20
2023-04-11T15:13:28.270Z,46.50
2023-04-11T15:16:18.791Z,46.60
2023-04-11T15:19:09.830Z,46.60
2023-04-11T15:22:00.551Z,46.50
2023-04-11T15:24:50.854Z,46.40
2023-04-11T15:27:40.434Z,46.20
2023-04-11T15:30:29.866Z,46.10
2023-04-11T15:33:20.809Z,45.90
2023-04-11T15:36:10.961Z,45.90
2023-04-11T15:39:01.768Z,45.80
2023-04-11T15:41:51.921Z,45.90
2023-04-11T15:44:41.319Z,46.10
2023-04-11T15:47:31.429Z,45.90
2023-04-11T15:50:21.162Z,46.30
2023-04-11T15:53:10.598Z,46.30
2023-04-11T15:56:05.153Z,46.20
2023-04-11T15:58:54.471Z,46.30
2023-04-11T16:01:43.924Z,46.40
2023-04-11T16:04:38.351Z,46.80
2023-04-11T16:07:27.846Z,46.10
2023-04-11T16:10:17.411Z,45.80
2023-04-11T16:13:08.664Z,45.40
2023-04-11T16:15:59.158Z,45.00
2023-04-11T16:18:48.556Z,44.80
2023-04-11T16:21:38.845Z,44.60
2023-04-11T16:24:30.020Z,44.50
2023-04-11T16:27:19.802Z,44.30
2023-04-11T16:30:12.515Z,44.10
2023-04-11T16:33:01.922Z,44.10
2023-04-11T16:35:51.361Z,44.00
2023-04-11T16:38:40.797Z,43.80
2023-04-11T16:41:30.156Z,43.60
2023-04-11T16:44:21.648Z,43.50
2023-04-11T16:47:12.572Z,43.30
2023-04-11T16:50:02.029Z,43.20
2023-04-11T16:52:51.442Z,43.20
2023-04-11T16:55:40.787Z,43.10
2023-04-11T16:58:31.180Z,43.10
2023-04-11T17:01:20.608Z,42.90
2023-04-11T17:04:12.550Z,43.00
2023-04-11T17:07:01.912Z,42.90
2023-04-11T17:09:51.212Z,42.90
2023-04-11T17:12:40.861Z,42.70
2023-04-11T17:15:30.366Z,42.70
2023-04-11T17:18:19.795Z,42.80
2023-04-11T17:21:10.952Z,42.80
2023-04-11T17:24:00.683Z,42.90
2023-04-11T17:26:50.439Z,42.70
2023-04-11T17:29:39.775Z,42.70
2023-04-11T17:32:29.154Z,42.80
2023-04-11T17:35:18.552Z,42.80
2023-04-11T17:38:09.671Z,42.90
2023-04-11T17:41:06.782Z,43.00
2023-04-11T17:44:02.562Z,43.10
2023-04-11T17:46:52.134Z,43.20
2023-04-11T17:49:41.462Z,43.40
2023-04-11T17:52:30.754Z,43.50
2023-04-11T17:55:21.658Z,43.60
2023-04-11T17:58:11.376Z,43.60
2023-04-11T18:01:00.817Z,43.60
2023-04-11T18:03:50.532Z,43.50
2023-04-11T18:06:40.093Z,43.50
2023-04-11T18:09:31.929Z,43.40
2023-04-11T18:12:29.589Z,43.40
2023-04-11T18:15:19.617Z,43.50
2023-04-11T18:18:10.494Z,43.50
2023-04-11T18:21:06.718Z,43.70
2023-04-11T18:23:57.220Z,43.90
2023-04-11T18:26:47.084Z,43.80
2023-04-11T18:29:37.857Z,44.00
2023-04-11T18:32:32.517Z,44.10
2023-04-11T18:35:25.396Z,44.10
2023-04-11T18:38:14.917Z,44.10
2023-04-11T18:41:07.141Z,44.00
2023-04-11T18:43:57.026Z,43.90
2023-04-11T18:46:48.165Z,43.90
2023-04-11T18:49:38.251Z,44.00
2023-04-11T18:52:28.687Z,44.00
2023-04-11T18:55:18.464Z,43.90
2023-04-11T18:58:09.152Z,43.80
2023-04-11T19:01:01.764Z,43.90
2023-04-11T19:04:01.657Z,43.80
2023-04-11T19:06:51.546Z,44.00
2023-04-11T19:09:40.943Z,44.10
2023-04-11T19:12:30.580Z,44.00
2023-04-11T19:15:20.134Z,44.00
2023-04-11T19:18:10.342Z,44.00
2023-04-11T19:21:02.425Z,44.10
2023-04-11T19:23:51.779Z,44.20
2023-04-11T19:26:41.542Z,44.20
2023-04-11T19:29:30.919Z,44.20
2023-04-11T19:32:20.517Z,44.30
2023-04-11T19:35:11.532Z,44.30
2023-04-11T19:38:05.678Z,44.40
2023-04-11T19:40:55.723Z,44.50
2023-04-11T19:43:45.506Z,44.50
2023-04-11T19:46:35.122Z,44.70
2023-04-11T19:49:24.506Z,44.80
2023-04-11T19:52:13.862Z,47.20
2023-04-11T19:55:04.929Z,44.90
2023-04-11T19:57:54.498Z,45.90
2023-04-11T20:00:43.775Z,46.00
2023-04-11T20:03:33.266Z,46.00
2023-04-11T20:06:22.786Z,46.20
2023-04-11T20:09:12.720Z,46.20
2023-04-11T20:12:05.676Z,46.40
2023-04-11T20:14:55.020Z,46.60
2023-04-11T20:17:46.044Z,46.50
2023-04-11T20:20:36.833Z,46.50
2023-04-11T20:23:26.364Z,46.50
2023-04-11T20:26:15.633Z,46.50
2023-04-11T20:29:06.527Z,46.60
2023-04-11T20:31:55.936Z,46.60
2023-04-11T20:34:46.041Z,46.60
2023-04-11T20:37:35.791Z,46.60
2023-04-11T20:40:25.776Z,46.70
2023-04-11T20:43:16.887Z,46.70
2023-04-11T20:46:08.519Z,46.70
2023-04-11T20:48:57.996Z,46.70
2023-04-11T20:51:47.978Z,46.70
2023-04-11T20:54:37.332Z,46.70
2023-04-11T20:57:29.925Z,46.70
2023-04-11T21:00:20.943Z,46.70
2023-04-11T21:03:12.480Z,46.70
2023-04-11T21:06:04.264Z,46.70
2023-04-11T21:08:53.560Z,46.80
2023-04-11T21:11:42.893Z,46.80
2023-04-11T21:14:33.128Z,46.90
2023-04-11T21:17:22.647Z,47.00
2023-04-11T21:20:19.460Z,46.90
2023-04-11T21:23:08.723Z,47.00
2023-04-11T21:25:58.072Z,47.00
2023-04-11T21:28:47.422Z,47.00
2023-04-11T21:31:36.728Z,47.10
2023-04-11T21:34:26.362Z,47.10
2023-04-11T21:37:17.085Z,47.00
2023-04-11T21:40:09.151Z,47.20
2023-04-11T21:42:58.491Z,47.30
2023-04-11T21:45:47.876Z,47.20
2023-04-11T21:48:37.301Z,48.60
2023-04-11T21:51:27.539Z,49.00
2023-04-11T21:54:18.308Z,48.60
2023-04-11T21:57:07.678Z,48.40
2023-04-11T21:59:56.935Z,48.40
2023-04-11T22:02:46.407Z,48.20
2023-04-11T22:05:41.906Z,48.10
2023-04-11T22:08:31.474Z,48.70
2023-04-11T22:11:22.185Z,48.00
2023-04-11T22:14:16.015Z,48.10
2023-04-11T22:17:05.334Z,48.00
2023-04-11T22:19:58.169Z,48.00
2023-04-11T22:22:48.054Z,48.10
2023-04-11T22:25:38.730Z,48.00
2023-04-11T22:28:29.575Z,48.10
2023-04-11T22:31:18.918Z,48.10
2023-04-11T22:34:09.386Z,48.10
2023-04-11T22:36:58.840Z,48.00
2023-04-11T22:39:48.198Z,48.10
2023-04-11T22:42:37.460Z,48.10
2023-04-11T22:45:28.322Z,48.30
2023-04-11T22:48:17.671Z,48.30
2023-04-11T22:51:08.096Z,48.20
2023-04-11T22:53:57.649Z,48.30
2023-04-11T22:56:55.090Z,48.40
2023-04-11T22:59:44.389Z,48.40
2023-04-11T23:02:35.971Z,48.20
2023-04-11T23:05:25.833Z,48.30
2023-04-11T23:08:15.172Z,48.20
2023-04-11T23:11:05.095Z,48.60
2023-04-11T23:13:54.505Z,49.10
2023-04-11T23:16:45.088Z,48.90
2023-04-11T23:19:36.770Z,48.70
2023-04-11T23:22:26.369Z,48.70
2023-04-11T23:25:17.006Z,48.60
2023-04-11T23:28:06.391Z,48.60
2023-04-11T23:30:56.483Z,48.60
2023-04-11T23:33:46.386Z,48.40
2023-04-11T23:36:37.707Z,48.30
2023-04-11T23:39:27.098Z,48.30
2023-04-11T23:42:16.648Z,48.30
2023-04-11T23:45:07.177Z,48.40
2023-04-11T23:47:56.547Z,48.70
2023-04-11T23:50:45.891Z,48.70
2023-04-11T23:53:36.647Z,48.70
2023-04-11T23:56:27.888Z,48.80
2023-04-11T23:59:17.956Z,72.50
